createdAt,value
2022-12-05T00:02:28.502Z,102272.69
2022-12-05T00:04:57.459Z,102278.94
2022-12-05T00:07:26.376Z,102308.28
2022-12-05T00:09:55.539Z,102221.28
2022-12-05T00:12:24.578Z,102310.78
2022-12-05T00:14:53.450Z,102205.88
2022-12-05T00:17:22.825Z,102259.84
2022-12-05T00:19:56.531Z,102312.81
2022-12-05T00:22:26.105Z,102292.78
2022-12-05T00:24:55.109Z,102299.41
2022-12-05T00:27:23.768Z,102330.53
2022-12-05T00:29:52.811Z,102306.88
2022-12-05T00:32:24.434Z,102298.97
2022-12-05T00:34:53.549Z,102299.81
2022-12-05T00:37:22.786Z,102347.03
2022-12-05T00:39:51.634Z,102339.00
2022-12-05T00:42:20.924Z,102290.81
2022-12-05T00:44:53.224Z,102358.97
2022-12-05T00:47:22.024Z,102309.41
2022-12-05T00:49:51.234Z,102246.41
2022-12-05T00:52:20.498Z,102355.47
2022-12-05T00:54:49.650Z,102357.44
2022-12-05T00:57:18.528Z,102344.00
2022-12-05T00:59:47.262Z,102345.06
2022-12-05T01:02:16.188Z,102361.16
2022-12-05T01:04:44.912Z,102347.19
2022-12-05T01:07:14.021Z,102339.78
2022-12-05T01:09:43.121Z,102338.38
2022-12-05T01:12:12.077Z,102354.97
2022-12-05T01:14:41.290Z,102377.31
2022-12-05T01:17:11.194Z,102370.16
2022-12-05T01:19:40.093Z,102373.34
2022-12-05T01:22:09.139Z,102360.41
2022-12-05T01:24:37.847Z,102376.47
2022-12-05T01:27:06.912Z,102370.22
2022-12-05T01:29:35.815Z,102363.44
2022-12-05T01:32:05.058Z,102371.13
2022-12-05T01:34:33.809Z,102396.47
2022-12-05T01:37:03.354Z,102368.66
2022-12-05T01:39:32.323Z,102384.38
2022-12-05T01:42:05.516Z,102358.28
2022-12-05T01:44:34.796Z,102412.03
2022-12-05T01:47:06.405Z,102401.63
2022-12-05T01:49:43.905Z,102388.44
2022-12-05T01:52:19.473Z,102394.72
2022-12-05T01:54:51.605Z,102392.47
2022-12-05T01:57:20.362Z,102399.81
2022-12-05T01:59:54.386Z,102402.16
2022-12-05T02:02:23.321Z,102421.69
2022-12-05T02:05:29.432Z,102409.16
2022-12-05T02:08:03.868Z,102384.81
2022-12-05T02:10:38.294Z,102405.84
2022-12-05T02:13:26.934Z,102403.13
2022-12-05T02:16:24.917Z,102430.19
2022-12-05T02:19:10.834Z,102409.19
2022-12-05T02:21:42.601Z,102435.56
2022-12-05T02:24:34.780Z,102411.00
2022-12-05T02:27:18.441Z,102443.78
2022-12-05T02:29:56.167Z,102445.91
2022-12-05T02:33:02.160Z,102442.81
2022-12-05T02:35:39.668Z,102457.56
2022-12-05T02:38:18.483Z,102455.53
2022-12-05T02:41:28.497Z,102451.75
2022-12-05T02:44:05.901Z,102420.56
2022-12-05T02:46:39.778Z,102432.53
2022-12-05T02:49:12.973Z,102430.38
2022-12-05T02:51:49.437Z,102424.63
2022-12-05T02:54:22.804Z,102421.44
2022-12-05T02:56:53.940Z,102428.25
2022-12-05T02:59:23.647Z,102445.47
2022-12-05T03:01:53.335Z,102407.78
2022-12-05T03:04:25.278Z,102436.25
2022-12-05T03:07:01.485Z,102420.75
2022-12-05T03:09:41.015Z,102455.47
2022-12-05T03:12:21.279Z,102456.19
2022-12-05T03:15:16.400Z,102423.47
2022-12-05T03:17:55.228Z,102400.69
2022-12-05T03:20:38.064Z,102476.78
2022-12-05T03:23:25.141Z,102453.53
2022-12-05T03:26:16.345Z,102484.28
2022-12-05T03:28:59.315Z,102484.19
2022-12-05T03:31:49.992Z,102472.72
2022-12-05T03:34:31.301Z,102499.59
2022-12-05T03:37:08.163Z,102483.66
2022-12-05T03:39:45.291Z,102503.19
2022-12-05T03:42:17.367Z,102508.50
2022-12-05T03:44:58.454Z,102500.69
2022-12-05T03:48:01.858Z,102501.94
2022-12-05T03:50:31.299Z,102493.97
2022-12-05T03:53:19.492Z,102513.66
2022-12-05T03:55:59.694Z,102486.88
2022-12-05T03:58:36.383Z,102498.25
2022-12-05T04:01:08.041Z,102482.50
2022-12-05T04:03:52.547Z,102504.56
2022-12-05T04:06:35.853Z,102463.94
2022-12-05T04:09:31.085Z,102512.34
2022-12-05T04:12:05.271Z,102472.38
2022-12-05T04:14:41.168Z,102510.75
2022-12-05T04:17:22.430Z,102480.44
2022-12-05T04:20:14.555Z,102524.75
2022-12-05T04:22:44.342Z,102505.38
2022-12-05T04:25:33.896Z,102513.50
2022-12-05T04:28:40.346Z,102553.97
2022-12-05T04:31:13.156Z,102429.47
2022-12-05T04:34:08.669Z,102529.59
2022-12-05T04:36:43.834Z,102499.34
2022-12-05T04:39:20.264Z,102501.03
2022-12-05T04:41:56.668Z,102523.00
2022-12-05T04:44:35.649Z,102542.56
2022-12-05T04:47:06.983Z,102504.78
2022-12-05T04:49:37.775Z,102527.34
2022-12-05T04:52:11.596Z,102517.31
2022-12-05T04:54:50.363Z,102512.31
2022-12-05T04:57:40.096Z,102539.25
2022-12-05T05:00:09.329Z,102543.22
2022-12-05T05:03:18.538Z,102519.25
2022-12-05T05:05:51.782Z,102499.94
2022-12-05T05:08:24.018Z,102522.00
2022-12-05T05:10:56.993Z,102493.88
2022-12-05T05:13:26.003Z,102532.59
2022-12-05T05:15:54.768Z,102522.56
2022-12-05T05:18:26.038Z,102539.06
2022-12-05T05:20:54.853Z,102553.59
2022-12-05T05:23:23.614Z,102570.25
2022-12-05T05:25:56.947Z,102531.03
2022-12-05T05:28:25.421Z,102527.28
2022-12-05T05:30:54.135Z,102526.53
2022-12-05T05:33:22.919Z,102535.16
2022-12-05T05:35:54.472Z,102567.38
2022-12-05T05:38:23.128Z,102538.53
2022-12-05T05:40:53.336Z,102539.06
2022-12-05T05:43:21.954Z,102542.44
2022-12-05T05:45:50.730Z,102580.22
2022-12-05T05:48:19.487Z,102520.91
2022-12-05T05:50:48.377Z,102530.72
2022-12-05T05:53:17.054Z,102585.47
2022-12-05T05:55:45.889Z,102549.44
2022-12-05T05:58:14.589Z,102537.78
2022-12-05T06:00:43.414Z,102590.56
2022-12-05T06:03:12.375Z,102562.72
2022-12-05T06:05:41.295Z,102583.03
2022-12-05T06:08:10.186Z,102574.88
2022-12-05T06:10:42.907Z,102581.06
2022-12-05T06:13:11.658Z,102572.41
2022-12-05T06:15:40.439Z,102554.97
2022-12-05T06:18:09.430Z,102588.81
2022-12-05T06:20:40.401Z,102555.53
2022-12-05T06:23:08.914Z,102551.75
2022-12-05T06:25:37.659Z,102475.06
2022-12-05T06:28:06.444Z,102555.69
2022-12-05T06:30:35.267Z,102543.69
2022-12-05T06:33:03.939Z,102579.28
2022-12-05T06:35:32.722Z,102587.09
2022-12-05T06:38:01.440Z,102543.44
2022-12-05T06:40:30.397Z,102564.34
2022-12-05T06:42:59.196Z,102485.16
2022-12-05T06:45:27.961Z,102539.13
2022-12-05T06:47:59.456Z,102579.88
2022-12-05T06:50:28.319Z,102561.25
2022-12-05T06:52:56.938Z,102551.97
2022-12-05T06:55:25.633Z,102546.59
2022-12-05T06:57:54.581Z,102559.34
2022-12-05T07:00:41.759Z,102571.75
2022-12-05T07:03:12.217Z,102483.88
2022-12-05T07:05:40.897Z,102561.41
2022-12-05T07:08:09.687Z,102568.13
2022-12-05T07:10:38.337Z,102572.94
2022-12-05T07:13:07.173Z,102565.25
2022-12-05T07:15:35.871Z,102601.19
2022-12-05T07:18:04.670Z,102600.81
2022-12-05T07:20:49.538Z,102600.88
2022-12-05T07:23:22.358Z,102594.50
2022-12-05T07:25:51.035Z,102603.56
2022-12-05T07:28:20.157Z,102586.59
2022-12-05T07:30:48.926Z,102589.16
2022-12-05T07:33:17.535Z,102543.78
2022-12-05T07:35:46.256Z,102609.97
2022-12-05T07:38:14.901Z,102615.06
2022-12-05T07:40:43.625Z,102606.13
2022-12-05T07:43:12.520Z,102589.16
2022-12-05T07:45:41.236Z,102610.91
2022-12-05T07:48:13.260Z,102589.81
2022-12-05T07:50:44.575Z,102597.25
2022-12-05T07:53:13.523Z,102607.09
2022-12-05T07:55:42.364Z,102600.53
2022-12-05T07:58:11.023Z,102609.75
2022-12-05T08:00:40.319Z,102588.16
2022-12-05T08:03:09.318Z,102558.41
2022-12-05T08:05:38.807Z,102608.28
2022-12-05T08:08:07.610Z,102610.50
2022-12-05T08:10:36.627Z,102601.84
2022-12-05T08:13:05.375Z,102594.56
2022-12-05T08:15:37.434Z,102598.75
2022-12-05T08:18:06.135Z,102594.25
2022-12-05T08:20:35.292Z,102616.03
2022-12-05T08:23:04.363Z,102621.09
2022-12-05T08:25:36.075Z,102620.78
2022-12-05T08:28:04.813Z,102612.72
2022-12-05T08:30:35.685Z,102616.16
2022-12-05T08:33:04.658Z,102603.81
2022-12-05T08:35:37.860Z,102616.63
2022-12-05T08:38:06.680Z,102602.16
2022-12-05T08:40:35.936Z,102596.66
2022-12-05T08:43:05.337Z,102596.97
2022-12-05T08:45:37.514Z,102609.75
2022-12-05T08:48:07.318Z,102592.78
2022-12-05T08:50:36.275Z,102620.31
2022-12-05T08:53:05.399Z,102618.53
2022-12-05T08:55:38.516Z,102539.16
2022-12-05T08:58:07.825Z,102597.81
2022-12-05T09:00:36.894Z,102618.53
2022-12-05T09:03:06.287Z,102605.84
2022-12-05T09:05:38.159Z,102615.94
2022-12-05T09:08:07.839Z,102591.97
2022-12-05T09:10:38.206Z,102609.09
2022-12-05T09:13:07.335Z,102601.47
2022-12-05T09:15:39.716Z,102595.34
2022-12-05T09:18:09.075Z,102622.44
2022-12-05T09:20:40.554Z,102615.09
2022-12-05T09:23:14.454Z,102598.13
2022-12-05T09:25:44.815Z,102615.84
2022-12-05T09:28:13.914Z,102623.56
2022-12-05T09:30:44.634Z,102614.78
2022-12-05T09:33:13.664Z,102621.78
2022-12-05T09:35:42.688Z,102628.16
2022-12-05T09:38:14.016Z,102589.13
2022-12-05T09:40:44.188Z,102625.91
2022-12-05T09:43:50.325Z,102626.50
2022-12-05T09:46:31.467Z,102632.13
2022-12-05T09:49:06.314Z,102632.41
2022-12-05T09:51:37.687Z,102547.75
2022-12-05T09:54:06.714Z,102623.75
2022-12-05T09:56:35.305Z,102635.19
2022-12-05T09:59:06.358Z,102622.31
2022-12-05T10:02:01.865Z,102631.69
2022-12-05T10:04:35.796Z,102649.38
2022-12-05T10:07:33.008Z,102620.28
2022-12-05T10:10:29.357Z,102637.78
2022-12-05T10:13:26.550Z,102623.81
2022-12-05T10:16:01.460Z,102622.13
2022-12-05T10:18:59.777Z,102652.06
2022-12-05T10:21:31.314Z,102652.19
2022-12-05T10:24:14.522Z,102561.91
2022-12-05T10:26:47.771Z,102628.75
2022-12-05T10:29:22.676Z,102661.78
2022-12-05T10:31:58.990Z,102538.41
2022-12-05T10:34:35.645Z,102562.38
2022-12-05T10:37:16.053Z,102608.94
2022-12-05T10:39:45.886Z,102656.28
2022-12-05T10:42:29.474Z,102574.88
2022-12-05T10:45:01.876Z,102636.38
2022-12-05T10:47:32.192Z,102638.81
2022-12-05T10:50:32.830Z,102681.28
2022-12-05T10:53:04.731Z,102625.25
2022-12-05T10:55:50.587Z,102640.03
2022-12-05T10:58:31.228Z,102679.66
2022-12-05T11:01:10.094Z,102658.41
2022-12-05T11:03:44.107Z,102644.66
2022-12-05T11:06:25.737Z,102690.03
2022-12-05T11:09:19.612Z,102675.53
2022-12-05T11:12:10.303Z,102679.34
2022-12-05T11:14:39.067Z,102634.19
2022-12-05T11:17:08.275Z,102646.28
2022-12-05T11:19:39.334Z,102680.78
2022-12-05T11:22:08.813Z,102653.22
2022-12-05T11:24:39.968Z,102686.06
2022-12-05T11:27:18.302Z,102697.22
2022-12-05T11:29:58.473Z,102667.22
2022-12-05T11:32:31.577Z,102709.53
2022-12-05T11:35:18.221Z,102603.59
2022-12-05T11:37:59.037Z,102711.31
2022-12-05T11:40:38.791Z,102699.09
2022-12-05T11:43:55.422Z,102707.47
2022-12-05T11:46:35.570Z,102711.25
2022-12-05T11:49:49.268Z,102680.78
2022-12-05T11:53:09.190Z,102703.38
2022-12-05T11:55:55.846Z,102670.56
2022-12-05T11:58:43.043Z,102714.88
2022-12-05T12:01:47.024Z,102712.56
2022-12-05T12:04:53.144Z,102713.28
2022-12-05T12:07:32.945Z,102715.47
2022-12-05T12:10:27.884Z,102720.50
2022-12-05T12:12:57.149Z,102720.50
2022-12-05T12:15:45.626Z,102717.25
2022-12-05T12:18:32.810Z,102684.41
2022-12-05T12:21:24.959Z,102695.72
2022-12-05T12:24:22.424Z,102716.53
2022-12-05T12:27:17.736Z,102718.88
2022-12-05T12:29:56.357Z,102721.22
2022-12-05T12:32:59.314Z,102727.31
2022-12-05T12:36:02.609Z,102676.94
2022-12-05T12:39:01.057Z,102705.09
2022-12-05T12:41:55.599Z,102719.81
2022-12-05T12:44:27.363Z,102719.81
2022-12-05T12:47:02.813Z,102681.78
2022-12-05T12:50:00.447Z,102691.69
2022-12-05T12:52:43.513Z,102729.47
2022-12-05T12:55:50.305Z,102720.75
2022-12-05T12:58:49.834Z,102724.66
2022-12-05T13:01:40.425Z,102729.72
2022-12-05T13:04:16.867Z,102674.25
2022-12-05T13:06:51.060Z,102703.31
2022-12-05T13:09:42.941Z,102702.06
2022-12-05T13:12:22.785Z,102704.38
2022-12-05T13:15:05.643Z,102731.69
2022-12-05T13:17:35.150Z,102709.97
2022-12-05T13:20:04.299Z,102637.66
2022-12-05T13:22:33.613Z,102714.09
2022-12-05T13:25:02.555Z,102650.72
2022-12-05T13:27:31.932Z,102728.97
2022-12-05T13:30:09.400Z,102746.03
2022-12-05T13:32:43.428Z,102713.38
2022-12-05T13:35:43.717Z,102715.16
2022-12-05T13:38:41.868Z,102648.06
2022-12-05T13:41:31.776Z,102710.69
2022-12-05T13:44:06.584Z,102714.06
2022-12-05T13:46:39.677Z,102724.66
2022-12-05T13:49:43.156Z,102747.47
2022-12-05T13:52:26.222Z,102731.84
2022-12-05T13:55:15.547Z,102742.44
2022-12-05T13:57:46.578Z,102739.56
2022-12-05T14:00:15.536Z,102732.72
2022-12-05T14:02:46.887Z,102746.94
2022-12-05T14:05:15.998Z,102737.97
2022-12-05T14:07:51.726Z,102723.41
2022-12-05T14:10:30.467Z,102745.28
2022-12-05T14:13:21.124Z,102727.34
2022-12-05T14:15:51.915Z,102708.69
2022-12-05T14:18:53.868Z,102740.63
2022-12-05T14:21:49.052Z,102728.75
2022-12-05T14:24:26.886Z,102735.03
2022-12-05T14:27:08.415Z,102743.09
2022-12-05T14:30:02.697Z,102706.66
2022-12-05T14:32:33.522Z,102742.38
2022-12-05T14:35:05.531Z,102737.69
2022-12-05T14:37:53.073Z,102715.44
2022-12-05T14:40:30.237Z,102724.06
2022-12-05T14:43:02.797Z,102645.47
2022-12-05T14:45:48.857Z,102742.88
2022-12-05T14:48:17.779Z,102749.69
2022-12-05T14:50:55.793Z,102634.28
2022-12-05T14:53:33.359Z,102740.19
2022-12-05T14:56:02.082Z,102744.84
2022-12-05T14:58:38.281Z,102731.88
2022-12-05T15:01:15.302Z,102732.25
2022-12-05T15:04:12.732Z,102721.09
2022-12-05T15:06:54.159Z,102731.88
2022-12-05T15:09:41.256Z,102744.09
2022-12-05T15:12:25.891Z,102704.47
2022-12-05T15:15:08.695Z,102734.56
2022-12-05T15:17:47.715Z,102703.66
2022-12-05T15:20:41.098Z,102729.00
2022-12-05T15:23:40.589Z,102732.97
2022-12-05T15:29:27.878Z,102714.63
2022-12-05T15:32:09.051Z,102697.56
2022-12-05T15:35:06.100Z,102694.00
2022-12-05T15:37:45.387Z,102716.09
2022-12-05T15:40:22.625Z,102741.03
2022-12-05T15:42:56.928Z,102731.00
2022-12-05T15:45:28.733Z,102700.66
2022-12-05T15:48:00.795Z,102741.25
2022-12-05T15:50:36.074Z,102743.94
2022-12-05T15:53:26.124Z,102737.66
2022-12-05T15:56:01.783Z,102643.81
2022-12-05T15:58:35.065Z,102730.47
2022-12-05T16:01:24.148Z,102716.25
2022-12-05T16:04:17.646Z,102734.41
2022-12-05T16:06:56.644Z,102666.00
2022-12-05T16:09:34.084Z,102697.56
2022-12-05T16:12:16.823Z,102714.63
2022-12-05T16:15:03.165Z,102726.44
2022-12-05T16:17:43.340Z,102701.84
2022-12-05T16:20:18.926Z,102730.59
2022-12-05T16:22:51.277Z,102702.91
2022-12-05T16:25:26.343Z,102701.25
2022-12-05T16:28:03.653Z,102709.50
2022-12-05T16:30:33.551Z,102715.91
2022-12-05T16:33:07.535Z,102732.78
2022-12-05T16:35:46.249Z,102689.03
2022-12-05T16:38:20.561Z,102732.22
2022-12-05T16:40:49.505Z,102742.06
2022-12-05T16:43:35.589Z,102708.22
2022-12-05T16:46:14.283Z,102726.81
2022-12-05T16:48:50.700Z,102714.63
2022-12-05T16:51:20.949Z,102730.97
2022-12-05T16:53:57.468Z,102608.22
2022-12-05T16:56:32.722Z,102727.59
2022-12-05T16:59:06.590Z,102722.56
2022-12-05T17:01:39.103Z,102716.81
2022-12-05T17:04:12.287Z,102726.88
2022-12-05T17:06:41.337Z,102669.78
2022-12-05T17:09:13.988Z,102726.50
2022-12-05T17:11:46.097Z,102697.66
2022-12-05T17:14:17.412Z,102688.09
2022-12-05T17:16:46.939Z,102730.25
2022-12-05T17:19:16.019Z,102708.22
2022-12-05T17:21:48.038Z,102702.47
2022-12-05T17:24:19.273Z,102699.59
2022-12-05T17:26:48.500Z,102694.75
2022-12-05T17:29:18.090Z,102664.56
2022-12-05T17:31:49.209Z,102684.50
2022-12-05T17:34:19.703Z,102711.97
2022-12-05T17:36:48.668Z,102706.59
2022-12-05T17:39:17.937Z,102715.91
2022-12-05T17:41:47.517Z,102737.22
2022-12-05T17:44:17.050Z,102679.28
2022-12-05T17:46:46.602Z,102702.66
2022-12-05T17:49:18.815Z,102710.16
2022-12-05T17:52:20.138Z,102711.75
2022-12-05T17:54:38.649Z,102709.25
2022-12-05T17:57:07.555Z,102705.50
2022-12-05T17:59:39.161Z,102738.31
2022-12-05T18:02:08.206Z,102691.16
2022-12-05T18:04:37.773Z,102726.13
2022-12-05T18:07:07.235Z,102571.03
2022-12-05T18:09:36.230Z,102713.88
2022-12-05T18:12:05.412Z,102751.00
2022-12-05T18:14:36.887Z,102716.91
2022-12-05T18:17:05.876Z,102705.75
2022-12-05T18:19:35.682Z,102719.03
2022-12-05T18:22:05.417Z,102706.97
2022-12-05T18:24:34.434Z,102734.50
2022-12-05T18:27:03.053Z,102721.16
2022-12-05T18:29:32.584Z,102616.66
2022-12-05T18:32:01.942Z,102727.59
2022-12-05T18:34:30.765Z,102741.59
2022-12-05T18:36:59.945Z,102712.16
2022-12-05T18:39:28.743Z,102708.06
2022-12-05T18:41:57.600Z,102751.53
2022-12-05T18:44:26.290Z,102732.09
2022-12-05T18:46:55.082Z,102741.59
2022-12-05T18:49:23.806Z,102742.28
2022-12-05T18:51:53.248Z,102752.31
2022-12-05T18:54:22.667Z,102647.47
2022-12-05T18:56:53.955Z,102748.94
2022-12-05T18:59:24.309Z,102759.84
2022-12-05T19:01:53.284Z,102716.38
2022-12-05T19:04:23.420Z,102752.13
2022-12-05T19:06:58.491Z,102714.25
2022-12-05T19:09:33.404Z,102721.84
2022-12-05T19:12:02.665Z,102723.63
2022-12-05T19:14:33.723Z,102733.13
2022-12-05T19:17:03.982Z,102739.72
2022-12-05T19:19:33.000Z,102768.81
2022-12-05T19:22:02.924Z,102727.81
2022-12-05T19:24:31.823Z,102755.69
2022-12-05T19:27:01.091Z,102764.47
2022-12-05T19:29:29.887Z,102750.03
2022-12-05T19:31:58.772Z,102758.50
2022-12-05T19:34:27.745Z,102728.53
2022-12-05T19:36:57.407Z,102734.31
2022-12-05T19:39:27.080Z,102743.69
2022-12-05T19:42:01.041Z,102772.19
2022-12-05T19:44:30.364Z,102709.91
2022-12-05T19:47:00.402Z,102754.06
2022-12-05T19:49:29.406Z,102729.28
2022-12-05T19:51:58.265Z,102716.69
2022-12-05T19:54:27.529Z,102730.38
2022-12-05T19:56:59.088Z,102699.13
2022-12-05T19:59:27.987Z,102742.28
2022-12-05T20:01:57.073Z,102702.44
2022-12-05T20:04:25.979Z,102719.50
2022-12-05T20:06:54.984Z,102715.75
2022-12-05T20:09:25.187Z,102740.69
2022-12-05T20:11:56.132Z,102715.22
2022-12-05T20:14:26.448Z,102708.41
2022-12-05T20:16:56.328Z,102714.88
2022-12-05T20:19:25.548Z,102734.13
2022-12-05T20:21:56.096Z,102740.47
2022-12-05T20:24:24.790Z,102638.09
2022-12-05T20:26:53.751Z,102755.69
2022-12-05T20:29:22.464Z,102708.16
2022-12-05T20:31:52.987Z,102724.50
2022-12-05T20:34:21.614Z,102719.81
2022-12-05T20:36:50.285Z,102735.94
2022-12-05T20:39:19.317Z,102732.97
2022-12-05T20:41:51.010Z,102629.22
2022-12-05T20:44:20.069Z,102729.38
2022-12-05T20:46:53.475Z,102757.72
2022-12-05T20:49:23.105Z,102753.41
2022-12-05T20:51:51.841Z,102698.28
2022-12-05T20:54:20.740Z,102631.66
2022-12-05T20:56:50.363Z,102636.19
2022-12-05T20:59:19.326Z,102699.31
2022-12-05T21:01:48.757Z,102744.81
2022-12-05T21:04:17.864Z,102719.97
2022-12-05T21:06:47.472Z,102741.50
2022-12-05T21:09:27.005Z,102641.81
2022-12-05T21:11:56.549Z,102756.53
2022-12-05T21:14:26.045Z,102754.34
2022-12-05T21:16:55.003Z,102739.31
2022-12-05T21:19:28.017Z,102761.16
2022-12-05T21:21:57.554Z,102749.41
2022-12-05T21:24:26.579Z,102746.44
2022-12-05T21:26:55.704Z,102720.97
2022-12-05T21:29:24.742Z,102737.97
2022-12-05T21:31:53.678Z,102749.84
2022-12-05T21:34:22.566Z,102710.97
2022-12-05T21:36:51.569Z,102752.63
2022-12-05T21:39:20.432Z,102735.06
2022-12-05T21:41:49.358Z,102765.94
2022-12-05T21:44:20.188Z,102733.66
2022-12-05T21:46:49.507Z,102740.47
2022-12-05T21:49:18.415Z,102749.03
2022-12-05T21:51:47.291Z,102706.69
2022-12-05T21:54:16.158Z,102721.38
2022-12-05T21:56:46.064Z,102705.94
2022-12-05T21:59:14.714Z,102717.63
2022-12-05T22:01:43.736Z,102701.19
2022-12-05T22:04:12.426Z,102625.44
2022-12-05T22:06:41.167Z,102703.31
2022-12-05T22:09:09.730Z,102730.38
2022-12-05T22:11:38.401Z,102711.19
2022-12-05T22:14:07.322Z,102719.25
2022-12-05T22:16:36.145Z,102735.75
2022-12-05T22:19:05.331Z,102632.34
2022-12-05T22:21:35.128Z,102703.81
2022-12-05T22:24:04.101Z,102698.22
2022-12-05T22:26:32.980Z,102632.47
2022-12-05T22:29:01.813Z,102716.13
2022-12-05T22:31:30.732Z,102686.88
2022-12-05T22:34:00.046Z,102714.59
2022-12-05T22:36:29.265Z,102691.75
2022-12-05T22:38:59.454Z,102696.75
2022-12-05T22:41:28.393Z,102684.75
2022-12-05T22:43:59.727Z,102636.47
2022-12-05T22:46:29.909Z,102727.16
2022-12-05T22:48:59.319Z,102719.03
2022-12-05T22:51:28.793Z,102718.31
2022-12-05T22:53:58.089Z,102620.09
2022-12-05T22:56:29.225Z,102723.56
2022-12-05T22:59:00.312Z,102724.25
2022-12-05T23:01:34.565Z,102699.25
2022-12-05T23:04:10.548Z,102701.97
2022-12-05T23:06:39.956Z,102707.22
2022-12-05T23:09:11.404Z,102709.00
2022-12-05T23:11:40.169Z,102691.63
2022-12-05T23:14:09.891Z,102688.91
2022-12-05T23:16:40.200Z,102705.97
2022-12-05T23:19:09.386Z,102736.44
2022-12-05T23:21:40.202Z,102688.91
2022-12-05T23:24:11.602Z,102682.44
2022-12-05T23:26:47.345Z,102680.31
2022-12-05T23:29:16.619Z,102689.31
2022-12-05T23:31:45.967Z,102662.75
2022-12-05T23:34:14.958Z,102711.53
2022-12-05T23:36:43.738Z,102724.22
2022-12-05T23:39:12.539Z,102688.97
2022-12-05T23:41:41.608Z,102689.69
2022-12-05T23:44:10.389Z,102688.09
2022-12-05T23:46:42.065Z,102689.19
2022-12-05T23:49:11.572Z,102714.03
2022-12-05T23:51:41.067Z,102707.53
2022-12-05T23:54:13.513Z,102682.78
2022-12-05T23:56:42.490Z,102696.75
2022-12-05T23:59:11.510Z,102690.16
